createdAt,value
2022-12-11T00:00:53.268Z,11.33
2022-12-11T00:03:20.829Z,6.80
2022-12-11T00:05:48.477Z,6.73
2022-12-11T00:08:16.013Z,9.23
2022-12-11T00:10:50.344Z,7.30
2022-12-11T00:13:17.883Z,11.23
2022-12-11T00:15:45.343Z,7.60
2022-12-11T00:18:14.780Z,8.30
2022-12-11T00:20:42.603Z,8.33
2022-12-11T00:23:11.094Z,13.17
2022-12-11T00:25:46.427Z,9.00
2022-12-11T00:28:16.195Z,9.83
2022-12-11T00:30:43.677Z,6.53
2022-12-11T00:33:12.845Z,9.00
2022-12-11T00:35:42.437Z,11.60
2022-12-11T00:38:15.701Z,9.70
2022-12-11T00:40:43.554Z,18.03
2022-12-11T00:43:11.386Z,9.97
2022-12-11T00:45:42.710Z,5.93
2022-12-11T00:48:11.780Z,9.13
2022-12-11T00:50:40.132Z,9.70
2022-12-11T00:53:08.647Z,9.67
2022-12-11T00:55:42.849Z,9.20
2022-12-11T00:58:11.503Z,13.07
2022-12-11T01:00:40.187Z,9.93
2022-12-11T01:03:08.282Z,9.33
2022-12-11T01:05:36.049Z,9.27
2022-12-11T01:08:04.486Z,10.70
2022-12-11T01:10:33.002Z,11.93
2022-12-11T01:13:06.049Z,8.07
2022-12-11T01:15:41.523Z,8.10
2022-12-11T01:18:14.867Z,11.83
2022-12-11T01:20:43.350Z,9.10
2022-12-11T01:23:13.098Z,10.10
2022-12-11T01:25:41.944Z,9.77
2022-12-11T01:28:09.898Z,10.27
2022-12-11T01:30:37.933Z,12.23
2022-12-11T01:33:05.622Z,9.23
2022-12-11T01:35:33.179Z,10.10
2022-12-11T01:38:01.199Z,11.13
2022-12-11T01:40:28.648Z,11.93
2022-12-11T01:42:56.147Z,10.83
2022-12-11T01:45:39.467Z,12.40
2022-12-11T01:48:20.136Z,12.40
2022-12-11T01:50:49.749Z,12.23
2022-12-11T01:53:21.864Z,10.77
2022-12-11T01:55:51.701Z,14.67
2022-12-11T01:58:22.600Z,13.67
2022-12-11T02:00:51.441Z,16.27
2022-12-11T02:03:19.135Z,14.43
2022-12-11T02:05:46.607Z,14.03
2022-12-11T02:08:14.863Z,14.60
2022-12-11T02:10:49.555Z,14.20
2022-12-11T02:13:26.999Z,17.00
2022-12-11T02:16:00.988Z,15.68
2022-12-11T02:18:38.976Z,16.57
2022-12-11T02:21:28.110Z,15.33
2022-12-11T02:24:04.431Z,17.30
2022-12-11T02:26:59.170Z,16.63
2022-12-11T02:29:35.366Z,15.27
2022-12-11T02:32:49.489Z,13.67
2022-12-11T02:35:35.697Z,17.90
2022-12-11T02:38:10.492Z,15.43
2022-12-11T02:40:41.025Z,12.87
2022-12-11T02:43:11.898Z,22.87
2022-12-11T02:45:41.901Z,13.13
2022-12-11T02:48:11.744Z,25.97
2022-12-11T02:50:44.160Z,18.10
2022-12-11T02:53:13.707Z,20.43
2022-12-11T02:55:42.734Z,14.20
2022-12-11T02:58:18.403Z,15.60
2022-12-11T03:00:46.584Z,16.07
2022-12-11T03:03:14.507Z,15.87
2022-12-11T03:05:42.864Z,15.63
2022-12-11T03:08:10.528Z,18.33
2022-12-11T03:10:38.124Z,15.80
2022-12-11T03:13:05.627Z,15.67
2022-12-11T03:15:58.645Z,16.60
2022-12-11T03:18:35.729Z,13.20
2022-12-11T03:21:10.467Z,17.35
2022-12-11T03:24:05.193Z,15.53
2022-12-11T03:26:39.413Z,15.30
2022-12-11T03:29:21.117Z,17.63
2022-12-11T03:31:58.616Z,9.83
2022-12-11T03:35:10.177Z,14.38
2022-12-11T03:37:41.352Z,15.23
2022-12-11T03:40:16.157Z,13.80
2022-12-11T03:42:46.941Z,12.07
2022-12-11T03:45:16.205Z,12.33
2022-12-11T03:47:45.361Z,12.03
2022-12-11T03:50:16.555Z,11.37
2022-12-11T03:52:46.723Z,11.77
2022-12-11T03:55:17.275Z,11.90
2022-12-11T03:57:45.435Z,10.97
2022-12-11T04:00:18.944Z,16.33
2022-12-11T04:03:11.356Z,10.63
2022-12-11T04:05:42.610Z,11.03
2022-12-11T04:08:13.100Z,14.97
2022-12-11T04:10:41.454Z,11.77
2022-12-11T04:13:10.137Z,13.87
2022-12-11T04:15:39.486Z,12.43
2022-12-11T04:18:26.316Z,10.13
2022-12-11T04:21:13.471Z,15.80
2022-12-11T04:23:59.722Z,14.23
2022-12-11T04:26:27.401Z,14.13
2022-12-11T04:28:54.852Z,13.13
2022-12-11T04:31:22.842Z,14.80
2022-12-11T04:33:50.594Z,16.37
2022-12-11T04:36:18.255Z,15.27
2022-12-11T04:38:47.206Z,12.03
2022-12-11T04:41:16.500Z,14.57
2022-12-11T04:43:45.391Z,13.40
2022-12-11T04:46:19.397Z,14.93
2022-12-11T04:48:49.276Z,18.87
2022-12-11T04:51:20.490Z,13.40
2022-12-11T04:53:48.075Z,13.47
2022-12-11T04:56:16.668Z,18.13
2022-12-11T04:58:45.269Z,20.70
2022-12-11T05:01:18.654Z,23.83
2022-12-11T05:03:46.845Z,18.27
2022-12-11T05:06:15.119Z,13.87
2022-12-11T05:08:43.907Z,14.43
2022-12-11T05:11:13.726Z,18.47
2022-12-11T05:13:41.841Z,15.20
2022-12-11T05:16:11.357Z,16.33
2022-12-11T05:18:39.078Z,16.67
2022-12-11T05:21:10.629Z,14.20
2022-12-11T05:23:39.202Z,18.07
2022-12-11T05:26:11.370Z,15.23
2022-12-11T05:28:39.970Z,13.03
2022-12-11T05:31:19.490Z,17.60
2022-12-11T05:33:50.330Z,13.13
2022-12-11T05:36:21.158Z,15.03
2022-12-11T05:38:49.106Z,13.30
2022-12-11T05:41:19.628Z,11.73
2022-12-11T05:43:47.723Z,15.37
2022-12-11T05:46:21.027Z,11.40
2022-12-11T05:48:51.918Z,14.00
2022-12-11T05:51:20.014Z,13.37
2022-12-11T05:53:50.069Z,14.90
2022-12-11T05:56:23.700Z,14.70
2022-12-11T05:58:51.387Z,11.43
2022-12-11T06:01:20.815Z,13.87
2022-12-11T06:03:48.410Z,15.33
2022-12-11T06:06:16.566Z,18.07
2022-12-11T06:08:44.042Z,18.33
2022-12-11T06:11:14.286Z,17.70
2022-12-11T06:13:43.231Z,13.67
2022-12-11T06:16:10.985Z,14.37
2022-12-11T06:18:40.700Z,15.37
2022-12-11T06:21:16.771Z,15.53
2022-12-11T06:23:45.606Z,17.40
2022-12-11T06:26:14.704Z,16.67
2022-12-11T06:28:42.754Z,14.77
2022-12-11T06:31:10.528Z,14.63
2022-12-11T06:33:38.423Z,13.23
2022-12-11T06:36:17.979Z,14.83
2022-12-11T06:38:45.785Z,15.07
2022-12-11T06:41:13.749Z,13.87
2022-12-11T06:43:43.014Z,15.37
2022-12-11T06:46:16.754Z,16.63
2022-12-11T06:48:45.311Z,17.20
2022-12-11T06:51:15.319Z,15.63
2022-12-11T06:53:43.125Z,20.97
2022-12-11T06:56:13.592Z,13.03
2022-12-11T06:58:41.884Z,13.13
2022-12-11T07:01:19.072Z,14.57
2022-12-11T07:03:46.806Z,13.23
2022-12-11T07:06:15.121Z,14.87
2022-12-11T07:08:43.682Z,17.20
2022-12-11T07:11:13.557Z,15.43
2022-12-11T07:13:44.673Z,16.60
2022-12-11T07:16:14.058Z,20.10
2022-12-11T07:18:49.793Z,14.40
2022-12-11T07:21:18.556Z,13.13
2022-12-11T07:23:46.159Z,14.13
2022-12-11T07:26:16.096Z,13.43
2022-12-11T07:28:43.955Z,16.30
2022-12-11T07:31:15.194Z,17.97
2022-12-11T07:33:43.563Z,12.57
2022-12-11T07:36:13.305Z,17.73
2022-12-11T07:38:41.420Z,14.00
2022-12-11T07:41:12.589Z,13.33
2022-12-11T07:43:40.852Z,16.17
2022-12-11T07:46:20.898Z,16.03
2022-12-11T07:48:49.028Z,15.03
2022-12-11T07:51:22.991Z,14.47
2022-12-11T07:53:50.748Z,16.30
2022-12-11T07:56:19.163Z,16.47
2022-12-11T07:58:47.740Z,15.53
2022-12-11T08:01:17.601Z,14.23
2022-12-11T08:03:45.361Z,17.13
2022-12-11T08:06:13.633Z,16.63
2022-12-11T08:08:42.183Z,14.17
2022-12-11T08:11:13.679Z,17.50
2022-12-11T08:13:42.576Z,15.00
2022-12-11T08:16:13.238Z,17.83
2022-12-11T08:18:42.206Z,17.47
2022-12-11T08:21:12.781Z,17.53
2022-12-11T08:23:40.602Z,17.37
2022-12-11T08:26:11.700Z,21.30
2022-12-11T08:28:39.529Z,18.80
2022-12-11T08:31:08.938Z,15.90
2022-12-11T08:33:37.833Z,19.93
2022-12-11T08:36:07.247Z,19.63
2022-12-11T08:38:35.866Z,18.67
2022-12-11T08:41:10.003Z,20.43
2022-12-11T08:43:38.126Z,19.70
2022-12-11T08:46:05.798Z,19.13
2022-12-11T08:48:37.917Z,21.77
2022-12-11T08:51:08.898Z,20.17
2022-12-11T08:53:36.789Z,21.73
2022-12-11T08:56:06.447Z,19.60
2022-12-11T08:58:34.159Z,20.23
2022-12-11T09:01:10.698Z,19.50
2022-12-11T09:03:39.571Z,21.10
2022-12-11T09:06:09.069Z,18.47
2022-12-11T09:08:36.936Z,22.50
2022-12-11T09:11:32.675Z,25.50
2022-12-11T09:14:06.739Z,18.97
2022-12-11T09:16:40.732Z,22.40
2022-12-11T09:19:14.086Z,25.63
2022-12-11T09:21:42.969Z,20.37
2022-12-11T09:24:11.997Z,23.57
2022-12-11T09:26:40.541Z,22.73
2022-12-11T09:29:08.849Z,21.60
2022-12-11T09:31:38.857Z,23.23
2022-12-11T09:34:08.896Z,24.83
2022-12-11T09:36:39.334Z,22.50
2022-12-11T09:39:08.569Z,22.10
2022-12-11T09:41:47.343Z,23.57
2022-12-11T09:44:44.089Z,21.03
2022-12-11T09:47:32.896Z,19.93
2022-12-11T09:50:03.411Z,17.43
2022-12-11T09:52:37.315Z,18.87
2022-12-11T09:55:16.780Z,22.63
2022-12-11T09:57:56.258Z,24.00
2022-12-11T10:00:36.063Z,22.43
2022-12-11T10:03:09.184Z,22.23
2022-12-11T10:05:41.735Z,19.30
2022-12-11T10:08:20.276Z,17.33
2022-12-11T10:11:04.773Z,25.33
2022-12-11T10:13:50.719Z,25.80
2022-12-11T10:16:27.031Z,18.67
2022-12-11T10:18:54.717Z,19.73
2022-12-11T10:21:23.024Z,16.60
2022-12-11T15:31:33.476Z,5.73
2022-12-11T15:34:02.055Z,6.17
2022-12-11T15:36:35.359Z,5.70
2022-12-11T15:39:05.859Z,7.03
2022-12-11T15:41:34.862Z,7.00
2022-12-11T15:44:04.624Z,6.50
2022-12-11T15:46:36.579Z,7.33
2022-12-11T15:49:11.730Z,6.57
2022-12-11T15:51:43.136Z,8.17
2022-12-11T15:54:11.149Z,5.83
2022-12-11T15:56:38.807Z,8.17
2022-12-11T15:59:07.122Z,6.70
2022-12-11T16:01:35.141Z,6.47
2022-12-11T16:04:05.121Z,5.40
2022-12-11T16:06:33.713Z,7.13
2022-12-11T16:09:03.487Z,5.80
2022-12-11T16:11:31.464Z,7.97
2022-12-11T16:13:59.084Z,9.03
2022-12-11T16:16:26.712Z,7.10
2022-12-11T16:18:54.191Z,5.77
2022-12-11T16:21:21.899Z,5.73
2022-12-11T16:23:49.724Z,5.90
2022-12-11T16:26:17.266Z,6.10
2022-12-11T16:28:44.737Z,7.37
2022-12-11T16:31:13.646Z,8.20
2022-12-11T16:33:41.342Z,7.27
2022-12-11T16:36:16.713Z,5.07
2022-12-11T16:38:53.492Z,7.10
2022-12-11T16:41:24.976Z,5.03
2022-12-11T16:43:54.240Z,6.67
2022-12-11T16:46:23.091Z,5.33
2022-12-11T16:48:50.601Z,4.50
2022-12-11T16:51:18.437Z,5.40
2022-12-11T16:53:46.481Z,4.83
2022-12-11T16:56:14.044Z,4.97
2022-12-11T16:58:41.604Z,3.20
2022-12-11T17:01:12.960Z,6.63
2022-12-11T17:03:42.684Z,5.20
2022-12-11T17:06:13.600Z,5.00
2022-12-11T17:08:42.815Z,5.10
2022-12-11T17:11:14.032Z,3.30
2022-12-11T17:13:41.796Z,4.20
2022-12-11T17:16:12.785Z,5.40
2022-12-11T17:18:40.690Z,4.70
2022-12-11T17:21:14.605Z,3.73
2022-12-11T17:23:42.372Z,5.60
2022-12-11T17:26:10.218Z,5.30
2022-12-11T17:28:38.617Z,5.00
2022-12-11T17:31:13.016Z,4.50
2022-12-11T17:33:40.670Z,5.00
2022-12-11T17:36:09.030Z,5.60
2022-12-11T17:38:36.636Z,5.13
2022-12-11T17:41:08.786Z,4.67
2022-12-11T17:43:36.294Z,4.17
2022-12-11T17:46:04.841Z,5.20
2022-12-11T17:48:32.840Z,5.83
2022-12-11T17:51:04.137Z,4.73
2022-12-11T17:53:33.482Z,4.50
2022-12-11T17:56:02.383Z,3.57
2022-12-11T17:58:30.694Z,2.93
2022-12-11T18:01:00.897Z,3.03
2022-12-11T18:03:29.212Z,4.60
2022-12-11T18:06:05.209Z,3.73
2022-12-11T18:08:33.199Z,4.13
2022-12-11T18:11:11.626Z,4.37
2022-12-11T18:13:39.838Z,4.27
2022-12-11T18:16:13.686Z,5.17
2022-12-11T18:18:41.341Z,4.73
2022-12-11T18:21:13.712Z,3.10
2022-12-11T18:23:41.207Z,5.00
2022-12-11T18:26:08.660Z,5.83
2022-12-11T18:28:36.226Z,3.47
2022-12-11T18:31:07.642Z,3.57
2022-12-11T18:33:37.609Z,6.00
2022-12-11T18:36:06.451Z,3.83
2022-12-11T18:38:34.291Z,2.50
2022-12-11T18:41:06.895Z,3.57
2022-12-11T18:43:35.274Z,2.30
2022-12-11T18:46:07.870Z,3.43
2022-12-11T18:48:35.544Z,2.83
2022-12-11T18:51:09.884Z,4.07
2022-12-11T18:53:39.424Z,3.20
2022-12-11T18:56:10.218Z,4.57
2022-12-11T18:58:38.321Z,3.10
2022-12-11T19:01:12.075Z,4.47
2022-12-11T19:03:39.892Z,1.50
2022-12-11T19:06:19.570Z,3.53
2022-12-11T19:08:47.836Z,2.20
2022-12-11T19:11:17.191Z,1.93
2022-12-11T19:13:45.523Z,5.10
2022-12-11T19:16:24.264Z,3.37
2022-12-11T19:19:00.735Z,2.03
2022-12-11T19:21:28.405Z,2.87
2022-12-11T19:23:56.080Z,3.27
2022-12-11T19:26:24.536Z,2.40
2022-12-11T19:28:53.021Z,2.03
2022-12-11T19:31:22.740Z,3.53
2022-12-11T19:33:50.422Z,2.77
2022-12-11T19:36:26.744Z,1.83
2022-12-11T19:39:34.637Z,1.87
2022-12-11T19:47:03.334Z,2.20
2022-12-11T19:50:14.421Z,1.40
2022-12-11T19:53:30.162Z,1.77
2022-12-11T19:55:57.702Z,1.40
2022-12-11T19:58:25.337Z,2.33
2022-12-11T20:00:52.864Z,2.27
2022-12-11T20:03:20.782Z,1.80
2022-12-11T20:05:48.345Z,2.53
2022-12-11T20:08:43.069Z,3.20
2022-12-11T20:11:10.564Z,2.50
2022-12-11T20:13:43.209Z,1.53
2022-12-11T20:16:14.296Z,2.80
2022-12-11T20:18:41.944Z,3.03
2022-12-11T20:21:15.618Z,4.10
2022-12-11T20:23:46.486Z,2.10
2022-12-11T20:26:20.004Z,3.30
2022-12-11T20:28:50.559Z,2.90
2022-12-11T20:31:20.850Z,3.37
2022-12-11T20:33:49.971Z,2.67
2022-12-11T20:36:21.038Z,2.17
2022-12-11T20:38:49.162Z,4.40
2022-12-11T20:41:20.255Z,3.00
2022-12-11T20:43:51.146Z,1.97
2022-12-11T20:46:18.936Z,2.73
2022-12-11T20:48:47.277Z,2.90
2022-12-11T20:51:23.865Z,2.90
2022-12-11T20:54:01.343Z,3.50
2022-12-11T20:56:30.581Z,3.47
2022-12-11T20:58:59.995Z,3.37
2022-12-11T21:01:30.961Z,4.27
2022-12-11T21:03:59.563Z,3.20
2022-12-11T21:06:31.332Z,3.93
2022-12-11T21:09:01.666Z,4.13
2022-12-11T21:11:29.599Z,3.77
2022-12-11T21:13:57.141Z,3.77
2022-12-11T21:16:24.973Z,4.77
2022-12-11T21:18:56.545Z,4.17
2022-12-11T21:21:24.100Z,5.43
2022-12-11T21:23:51.967Z,7.67
2022-12-11T21:26:19.917Z,6.20
2022-12-11T21:28:47.373Z,5.90
2022-12-11T21:31:17.442Z,4.70
2022-12-11T21:33:46.386Z,6.03
2022-12-11T21:36:15.630Z,6.63
2022-12-11T21:38:44.291Z,6.00
2022-12-11T21:41:18.627Z,7.33
2022-12-11T21:44:40.853Z,8.30
2022-12-11T21:46:38.370Z,8.63
2022-12-11T21:49:08.270Z,10.87
2022-12-11T21:51:41.367Z,11.63
2022-12-11T21:54:14.513Z,10.97
2022-12-11T21:56:42.618Z,11.53
2022-12-11T21:59:10.148Z,11.20
2022-12-11T22:01:42.305Z,11.67
2022-12-11T22:04:11.320Z,13.73
2022-12-11T22:06:42.065Z,12.90
2022-12-11T22:09:10.847Z,14.23
2022-12-11T22:11:39.017Z,20.37
2022-12-11T22:14:07.031Z,15.60
2022-12-11T22:16:35.473Z,16.77
2022-12-11T22:19:04.505Z,20.10
2022-12-11T22:21:32.122Z,17.60
2022-12-11T22:24:00.042Z,17.60
2022-12-11T22:26:28.386Z,21.47
2022-12-11T22:28:57.030Z,17.67
2022-12-11T22:31:26.736Z,20.80
2022-12-11T22:33:55.380Z,19.70
2022-12-11T22:36:25.399Z,19.00
2022-12-11T22:38:53.304Z,23.10
2022-12-11T22:41:23.689Z,19.70
2022-12-11T22:43:51.406Z,19.90
2022-12-11T22:46:20.655Z,22.83
2022-12-11T22:48:48.317Z,22.07
2022-12-11T22:51:16.220Z,21.73
2022-12-11T22:53:44.268Z,19.77
2022-12-11T22:56:13.837Z,23.27
2022-12-11T22:58:41.824Z,21.27
2022-12-11T23:01:12.671Z,21.97
2022-12-11T23:03:40.612Z,21.40
2022-12-11T23:06:11.350Z,20.97
2022-12-11T23:08:40.316Z,19.67
2022-12-11T23:11:27.827Z,19.37
2022-12-11T23:13:57.715Z,20.27
2022-12-11T23:16:29.421Z,25.53
2022-12-11T23:18:57.650Z,18.37
2022-12-11T23:21:26.790Z,19.83
2022-12-11T23:23:55.598Z,21.43
2022-12-11T23:26:23.588Z,21.33
2022-12-11T23:28:51.200Z,20.13
2022-12-11T23:31:18.873Z,23.63
2022-12-11T23:33:46.401Z,19.83
2022-12-11T23:36:14.130Z,21.83
2022-12-11T23:38:41.639Z,20.60
2022-12-11T23:41:12.076Z,20.00
2022-12-11T23:43:40.327Z,19.13
2022-12-11T23:46:12.479Z,20.70
2022-12-11T23:48:40.746Z,21.23
2022-12-11T23:51:09.474Z,20.17
2022-12-11T23:53:37.163Z,19.50
2022-12-11T23:56:07.266Z,19.80
2022-12-11T23:58:38.183Z,19.40
